createdAt,value
2019-02-12T00:00:52.500Z,1.70
2019-02-12T00:03:22.045Z,1.50
2019-02-12T00:05:51.495Z,1.67
2019-02-12T00:08:21.037Z,1.55
2019-02-12T00:10:50.563Z,1.37
2019-02-12T00:13:20.022Z,1.17
2019-02-12T00:15:49.494Z,1.25
2019-02-12T00:18:19.090Z,1.52
2019-02-12T00:20:48.662Z,1.47
2019-02-12T00:23:18.210Z,1.42
2019-02-12T00:25:47.721Z,1.70
2019-02-12T00:28:17.197Z,1.52
2019-02-12T00:30:46.655Z,1.42
2019-02-12T00:33:16.146Z,1.60
2019-02-12T00:35:45.671Z,1.85
2019-02-12T00:38:15.135Z,1.40
2019-02-12T00:40:44.747Z,1.32
2019-02-12T00:43:14.210Z,1.30
2019-02-12T00:45:43.729Z,1.32
2019-02-12T00:48:13.216Z,1.27
2019-02-12T00:50:42.723Z,1.62
2019-02-12T00:53:12.181Z,1.02
2019-02-12T00:55:41.723Z,1.50
2019-02-12T00:58:11.185Z,1.37
2019-02-12T01:00:40.637Z,1.45
2019-02-12T01:03:11.399Z,1.45
2019-02-12T01:05:40.857Z,1.32
2019-02-12T01:08:10.295Z,1.47
2019-02-12T01:10:39.749Z,1.15
2019-02-12T01:13:09.366Z,1.30
2019-02-12T01:15:38.890Z,1.40
2019-02-12T01:18:08.355Z,1.35
2019-02-12T01:20:37.852Z,1.30
2019-02-12T01:23:07.369Z,1.35
2019-02-12T01:25:36.963Z,1.17
2019-02-12T01:28:06.466Z,1.40
2019-02-12T01:30:35.932Z,1.30
2019-02-12T01:33:05.478Z,1.30
2019-02-12T01:35:35.033Z,1.57
2019-02-12T01:38:06.026Z,1.25
2019-02-12T01:40:35.464Z,1.30
2019-02-12T01:43:04.953Z,1.30
2019-02-12T01:45:34.410Z,1.65
2019-02-12T01:48:03.904Z,1.17
2019-02-12T01:50:33.404Z,1.50
2019-02-12T01:53:02.847Z,1.70
2019-02-12T01:55:32.433Z,1.35
2019-02-12T01:58:01.880Z,1.40
2019-02-12T02:00:33.834Z,1.12
2019-02-12T02:03:03.371Z,1.00
2019-02-12T02:05:32.860Z,1.00
2019-02-12T02:08:02.395Z,1.22
2019-02-12T02:10:31.881Z,1.20
2019-02-12T02:13:01.375Z,1.45
2019-02-12T02:15:30.802Z,1.15
2019-02-12T02:18:00.305Z,1.32
2019-02-12T02:20:29.755Z,1.22
2019-02-12T02:22:59.287Z,1.40
2019-02-12T02:25:28.806Z,1.40
2019-02-12T02:27:58.754Z,1.07
2019-02-12T02:30:28.246Z,0.85
2019-02-12T02:32:57.742Z,1.12
2019-02-12T02:35:27.244Z,1.02
2019-02-12T02:37:56.727Z,1.05
2019-02-12T02:40:27.551Z,1.10
2019-02-12T02:42:57.021Z,1.30
2019-02-12T02:45:26.522Z,1.20
2019-02-12T02:47:56.039Z,1.35
2019-02-12T02:50:25.511Z,0.82
2019-02-12T02:52:54.965Z,1.27
2019-02-12T02:55:25.926Z,0.85
2019-02-12T02:57:55.425Z,1.17
2019-02-12T03:00:26.931Z,1.22
2019-02-12T03:02:56.515Z,1.40
2019-02-12T03:05:25.964Z,0.98
2019-02-12T03:07:55.473Z,1.32
2019-02-12T03:10:24.959Z,1.02
2019-02-12T03:12:54.483Z,0.93
2019-02-12T03:15:23.912Z,1.10
2019-02-12T03:17:53.383Z,1.05
2019-02-12T03:20:24.184Z,1.47
2019-02-12T03:22:57.770Z,1.20
2019-02-12T03:25:27.310Z,0.90
2019-02-12T03:27:56.799Z,0.80
2019-02-12T03:30:26.249Z,1.42
2019-02-12T03:32:55.870Z,1.00
2019-02-12T03:35:25.319Z,1.10
2019-02-12T03:37:54.838Z,0.82
2019-02-12T03:40:24.743Z,1.10
2019-02-12T03:42:54.236Z,1.25
2019-02-12T03:45:23.813Z,1.10
2019-02-12T03:47:53.285Z,1.25
2019-02-12T03:50:23.122Z,1.00
2019-02-12T03:52:52.677Z,1.30
2019-02-12T03:55:22.318Z,1.20
2019-02-12T03:57:52.257Z,1.10
2019-02-12T04:00:22.019Z,1.07
2019-02-12T04:03:02.775Z,1.15
2019-02-12T04:05:32.309Z,1.00
2019-02-12T04:08:02.214Z,1.00
2019-02-12T04:10:31.801Z,1.30
2019-02-12T04:13:01.285Z,0.88
2019-02-12T04:15:30.889Z,1.00
2019-02-12T04:18:00.485Z,1.12
2019-02-12T04:20:29.995Z,1.07
2019-02-12T04:22:59.439Z,1.00
2019-02-12T04:25:29.085Z,1.10
2019-02-12T04:27:58.530Z,0.95
2019-02-12T04:30:28.060Z,0.98
2019-02-12T04:32:57.569Z,1.07
2019-02-12T04:35:27.143Z,0.82
2019-02-12T04:37:56.618Z,0.75
2019-02-12T04:40:26.239Z,0.90
2019-02-12T04:42:58.767Z,1.00
2019-02-12T04:45:28.354Z,0.80
2019-02-12T04:47:59.786Z,0.90
2019-02-12T04:50:29.302Z,1.05
2019-02-12T04:52:58.821Z,0.90
2019-02-12T04:55:28.452Z,1.20
2019-02-12T04:57:58.177Z,1.12
2019-02-12T05:00:27.681Z,1.20
2019-02-12T05:02:57.261Z,0.93
2019-02-12T05:05:26.714Z,0.85
2019-02-12T05:07:56.394Z,0.98
2019-02-12T05:10:26.922Z,0.98
2019-02-12T05:12:56.440Z,0.95
2019-02-12T05:15:25.888Z,0.78
2019-02-12T05:17:55.328Z,0.72
2019-02-12T05:20:24.828Z,0.70
2019-02-12T05:22:54.328Z,0.68
2019-02-12T05:25:23.868Z,0.90
2019-02-12T05:27:53.346Z,0.93
2019-02-12T05:30:22.864Z,0.80
2019-02-12T05:32:52.336Z,0.80
2019-02-12T05:35:21.865Z,0.98
2019-02-12T05:37:51.287Z,0.80
2019-02-12T05:40:20.778Z,1.10
2019-02-12T05:42:50.215Z,1.15
2019-02-12T05:45:19.776Z,0.95
2019-02-12T05:47:49.320Z,0.90
2019-02-12T05:50:18.898Z,0.90
2019-02-12T05:52:54.371Z,1.62
2019-02-12T05:55:19.605Z,1.35
2019-02-12T05:57:49.143Z,1.50
2019-02-12T06:00:19.664Z,1.30
2019-02-12T06:02:49.156Z,1.42
2019-02-12T06:05:27.946Z,1.30
2019-02-12T06:07:57.508Z,1.20
2019-02-12T06:10:27.466Z,0.93
2019-02-12T06:12:57.129Z,1.05
2019-02-12T06:15:26.766Z,1.20
2019-02-12T06:17:56.967Z,1.27
2019-02-12T06:20:26.503Z,1.20
2019-02-12T06:23:03.489Z,1.10
2019-02-12T06:25:27.793Z,1.00
2019-02-12T06:27:57.249Z,1.07
2019-02-12T06:30:26.981Z,0.88
2019-02-12T06:32:56.419Z,1.10
2019-02-12T06:35:27.353Z,0.95
2019-02-12T06:37:56.979Z,0.62
2019-02-12T06:40:29.468Z,1.00
2019-02-12T06:42:59.067Z,1.05
2019-02-12T06:45:28.693Z,0.93
2019-02-12T06:47:58.289Z,1.22
2019-02-12T06:50:27.765Z,1.10
2019-02-12T06:52:57.207Z,0.88
2019-02-12T06:55:26.809Z,0.90
2019-02-12T06:57:59.894Z,1.20
2019-02-12T07:00:29.423Z,1.40
2019-02-12T07:03:30.575Z,0.90
2019-02-12T07:06:13.621Z,0.80
2019-02-12T07:09:10.248Z,1.05
2019-02-12T07:12:29.367Z,0.93
2019-02-12T07:15:16.520Z,1.05
2019-02-12T07:18:15.275Z,1.00
2019-02-12T07:21:14.483Z,0.85
2019-02-12T07:24:36.652Z,1.10
2019-02-12T07:27:45.070Z,1.12
2019-02-12T07:30:40.422Z,0.90
2019-02-12T07:33:33.200Z,0.90
2019-02-12T07:36:35.518Z,1.30
2019-02-12T07:39:28.192Z,1.00
2019-02-12T07:42:59.634Z,1.22
2019-02-12T07:45:50.191Z,1.12
2019-02-12T07:48:51.677Z,1.17
2019-02-12T07:52:07.729Z,1.52
2019-02-12T07:55:28.860Z,1.12
2019-02-12T07:58:27.866Z,1.50
2019-02-12T08:01:21.299Z,1.47
2019-02-12T08:04:28.520Z,1.35
2019-02-12T08:07:45.033Z,1.50
2019-02-12T08:10:39.450Z,1.92
2019-02-12T08:14:05.107Z,2.12
2019-02-12T08:17:05.899Z,1.50
2019-02-12T08:20:20.998Z,1.98
2019-02-12T08:23:30.320Z,2.08
2019-02-12T08:26:40.769Z,1.87
2019-02-12T08:29:45.250Z,1.90
2019-02-12T08:32:58.428Z,1.80
2019-02-12T08:36:02.725Z,1.77
2019-02-12T08:39:12.441Z,1.60
2019-02-12T08:42:17.288Z,1.55
2019-02-12T08:44:59.683Z,1.40
2019-02-12T08:47:59.186Z,1.22
2019-02-12T08:51:08.093Z,1.45
2019-02-12T08:54:10.983Z,1.20
2019-02-12T08:57:13.424Z,1.65
2019-02-12T09:00:33.778Z,1.20
2019-02-12T09:03:44.832Z,1.22
2019-02-12T09:06:44.389Z,1.50
2019-02-12T09:09:53.398Z,1.12
2019-02-12T09:13:08.421Z,1.25
2019-02-12T09:16:14.696Z,1.25
2019-02-12T09:19:09.966Z,1.12
2019-02-12T09:22:19.793Z,1.52
2019-02-12T09:25:32.475Z,1.27
2019-02-12T09:28:38.641Z,1.20
2019-02-12T09:32:03.076Z,1.40
2019-02-12T09:35:01.070Z,1.12
2019-02-12T09:38:22.574Z,1.27
2019-02-12T09:41:48.063Z,1.00
2019-02-12T09:44:41.603Z,1.00
2019-02-12T09:47:43.268Z,1.30
2019-02-12T09:50:58.683Z,1.10
2019-02-12T09:54:11.091Z,1.30
2019-02-12T09:57:09.119Z,1.47
2019-02-12T10:00:14.665Z,1.05
2019-02-12T10:02:55.802Z,1.10
2019-02-12T10:06:21.451Z,1.10
2019-02-12T10:09:21.868Z,1.10
2019-02-12T10:12:03.528Z,1.00
2019-02-12T10:14:54.925Z,0.93
2019-02-12T10:17:46.478Z,1.07
2019-02-12T10:20:27.047Z,0.98
2019-02-12T10:23:46.192Z,1.10
2019-02-12T10:26:17.777Z,0.82
2019-02-12T10:29:34.357Z,1.00
2019-02-12T10:32:08.394Z,0.80
2019-02-12T10:34:33.276Z,0.88
2019-02-12T10:37:03.045Z,0.90
2019-02-12T10:39:32.591Z,0.90
2019-02-12T10:42:02.010Z,0.82
2019-02-12T10:44:31.598Z,0.82
2019-02-12T10:47:01.052Z,0.80
2019-02-12T10:49:30.619Z,0.80
2019-02-12T10:52:00.161Z,1.02
2019-02-12T10:54:30.142Z,0.68
2019-02-12T10:56:59.643Z,0.70
2019-02-12T10:59:29.267Z,0.88
2019-02-12T11:01:58.805Z,0.62
2019-02-12T11:04:28.285Z,0.90
2019-02-12T11:06:57.775Z,0.93
2019-02-12T11:09:27.240Z,0.90
2019-02-12T11:11:56.821Z,0.95
2019-02-12T11:14:27.749Z,0.90
2019-02-12T11:16:57.227Z,1.07
2019-02-12T11:19:26.788Z,1.10
2019-02-12T11:21:56.292Z,0.80
2019-02-12T11:24:25.944Z,0.82
2019-02-12T11:26:55.522Z,1.05
2019-02-12T11:29:25.091Z,0.80
2019-02-12T11:31:54.594Z,0.90
2019-02-12T11:34:24.220Z,1.07
2019-02-12T11:36:53.721Z,1.37
2019-02-12T11:39:23.178Z,0.85
2019-02-12T11:41:52.722Z,0.88
2019-02-12T11:44:22.685Z,0.90
2019-02-12T11:46:52.142Z,0.90
2019-02-12T11:49:21.747Z,1.10
2019-02-12T11:51:51.406Z,0.82
2019-02-12T11:54:20.875Z,0.80
2019-02-12T11:56:51.503Z,0.98
2019-02-12T11:59:21.511Z,1.55
2019-02-12T12:01:52.095Z,1.00
2019-02-12T12:04:21.734Z,1.15
2019-02-12T12:06:51.206Z,0.80
2019-02-12T12:09:20.833Z,0.90
2019-02-12T12:11:50.334Z,1.00
2019-02-12T12:14:19.819Z,0.80
2019-02-12T12:16:49.276Z,1.10
2019-02-12T12:19:18.747Z,0.95
2019-02-12T12:21:48.249Z,1.00
2019-02-12T12:24:18.539Z,0.85
2019-02-12T12:26:48.101Z,1.12
2019-02-12T12:29:18.515Z,1.10
2019-02-12T12:31:48.014Z,0.98
2019-02-12T12:34:17.460Z,0.95
2019-02-12T12:36:46.973Z,0.90
2019-02-12T12:39:16.474Z,0.98
2019-02-12T12:41:45.921Z,1.07
2019-02-12T12:44:15.378Z,0.82
2019-02-12T12:46:44.836Z,1.07
2019-02-12T12:49:14.328Z,1.00
2019-02-12T12:51:43.928Z,1.22
2019-02-12T12:54:13.393Z,1.27
2019-02-12T12:56:42.864Z,1.05
2019-02-12T12:59:12.425Z,1.17
2019-02-12T13:01:41.861Z,0.93
2019-02-12T13:04:11.342Z,1.07
2019-02-12T13:06:40.875Z,0.80
2019-02-12T13:09:10.382Z,1.05
2019-02-12T13:11:39.964Z,1.10
2019-02-12T13:14:09.484Z,1.00
2019-02-12T13:16:38.984Z,0.90
2019-02-12T13:19:08.564Z,0.70
2019-02-12T13:21:38.186Z,1.00
2019-02-12T13:24:07.892Z,0.80
2019-02-12T13:26:37.436Z,0.80
2019-02-12T13:29:06.954Z,0.80
2019-02-12T13:31:36.506Z,0.90
2019-02-12T13:34:05.976Z,0.78
2019-02-12T13:36:35.555Z,0.80
2019-02-12T13:39:06.334Z,0.88
2019-02-12T13:41:36.802Z,0.60
2019-02-12T13:44:06.430Z,1.00
2019-02-12T13:46:38.594Z,0.68
2019-02-12T13:49:08.156Z,0.70
2019-02-12T13:51:37.681Z,0.65
2019-02-12T13:54:07.225Z,0.60
2019-02-12T13:56:37.244Z,0.60
2019-02-12T13:59:09.238Z,0.80
2019-02-12T14:01:38.757Z,0.70
2019-02-12T14:04:08.315Z,0.55
2019-02-12T14:06:37.835Z,0.80
2019-02-12T14:09:07.640Z,0.60
2019-02-12T14:11:39.460Z,0.85
2019-02-12T14:14:08.939Z,1.07
2019-02-12T14:16:38.425Z,1.02
2019-02-12T14:19:07.942Z,1.32
2019-02-12T14:21:37.492Z,1.20
2019-02-12T14:24:07.034Z,1.20
2019-02-12T14:26:37.459Z,1.00
2019-02-12T14:29:07.220Z,1.07
2019-02-12T14:31:36.803Z,1.15
2019-02-12T14:34:07.354Z,1.37
2019-02-12T14:36:36.856Z,1.37
2019-02-12T14:39:07.067Z,1.35
2019-02-12T14:41:47.543Z,1.50
2019-02-12T14:44:17.080Z,1.67
2019-02-12T14:46:46.655Z,1.15
2019-02-12T14:49:16.201Z,1.37
2019-02-12T14:51:45.785Z,1.20
2019-02-12T14:54:15.275Z,1.22
2019-02-12T14:56:44.904Z,1.20
2019-02-12T14:59:14.398Z,1.30
2019-02-12T15:01:43.896Z,1.10
2019-02-12T15:04:13.480Z,1.30
2019-02-12T15:06:42.984Z,0.90
2019-02-12T15:09:12.463Z,0.70
2019-02-12T15:11:42.080Z,1.50
2019-02-12T15:14:11.566Z,1.07
2019-02-12T15:16:41.163Z,1.00
2019-02-12T15:19:11.223Z,1.00
2019-02-12T15:21:40.711Z,1.20
2019-02-12T15:24:10.298Z,0.90
2019-02-12T15:26:39.762Z,1.10
2019-02-12T15:29:09.313Z,1.30
2019-02-12T15:31:39.754Z,0.78
2019-02-12T15:34:09.301Z,1.00
2019-02-12T15:36:38.859Z,0.93
2019-02-12T15:39:08.458Z,0.72
2019-02-12T15:41:38.068Z,1.22
2019-02-12T15:44:06.364Z,1.05
2019-02-12T15:46:35.995Z,0.90
2019-02-12T15:49:05.591Z,1.42
2019-02-12T15:51:35.147Z,1.05
2019-02-12T15:54:04.740Z,0.82
2019-02-12T15:56:34.568Z,1.05
2019-02-12T15:59:04.236Z,1.10
2019-02-12T16:01:33.750Z,1.05
2019-02-12T16:04:03.296Z,1.20
2019-02-12T16:06:33.029Z,0.90
2019-02-12T16:09:02.708Z,0.93
2019-02-12T16:11:32.232Z,1.25
2019-02-12T16:14:01.957Z,1.30
2019-02-12T16:16:32.119Z,1.40
2019-02-12T16:19:03.534Z,1.30
2019-02-12T16:21:33.072Z,1.20
2019-02-12T16:24:02.981Z,1.22
2019-02-12T16:26:32.857Z,1.10
2019-02-12T16:29:02.614Z,1.30
2019-02-12T16:31:32.483Z,1.40
2019-02-12T16:34:02.134Z,1.20
2019-02-12T16:36:31.732Z,0.80
2019-02-12T16:39:01.529Z,0.90
2019-02-12T16:41:31.326Z,1.10
2019-02-12T16:44:00.973Z,1.00
2019-02-12T16:46:30.485Z,1.30
2019-02-12T16:49:00.004Z,1.15
2019-02-12T16:51:29.826Z,1.07
2019-02-12T16:53:59.327Z,1.65
2019-02-12T16:56:29.934Z,1.10
2019-02-12T16:59:03.563Z,1.30
2019-02-12T17:01:30.885Z,1.22
2019-02-12T17:04:00.538Z,1.20
2019-02-12T17:06:30.050Z,1.32
2019-02-12T17:09:04.702Z,1.62
2019-02-12T17:11:34.231Z,2.02
2019-02-12T17:14:03.762Z,1.70
2019-02-12T17:16:33.325Z,1.50
2019-02-12T17:19:02.996Z,1.35
2019-02-12T17:21:33.024Z,1.45
2019-02-12T17:24:02.611Z,1.17
2019-02-12T17:26:32.160Z,1.17
2019-02-12T17:29:03.203Z,1.67
2019-02-12T17:31:32.868Z,1.85
2019-02-12T17:34:02.481Z,1.75
2019-02-12T17:36:32.224Z,1.95
2019-02-12T17:39:03.232Z,1.57
2019-02-12T17:41:32.793Z,1.27
2019-02-12T17:44:02.350Z,1.32
2019-02-12T17:46:32.013Z,1.35
2019-02-12T17:49:01.917Z,1.50
2019-02-12T17:51:31.921Z,1.12
2019-02-12T17:54:01.439Z,1.37
2019-02-12T17:56:31.202Z,1.30
2019-02-12T17:59:00.704Z,1.20
2019-02-12T18:01:30.362Z,1.30
2019-02-12T18:03:59.918Z,1.20
2019-02-12T18:06:29.435Z,1.22
2019-02-12T18:08:59.085Z,1.35
2019-02-12T18:11:28.650Z,1.22
2019-02-12T18:13:58.517Z,1.45
2019-02-12T18:16:28.011Z,1.10
2019-02-12T18:18:57.548Z,1.20
2019-02-12T18:21:27.161Z,1.20
2019-02-12T18:23:56.660Z,1.15
2019-02-12T18:26:33.134Z,1.30
2019-02-12T18:28:57.622Z,1.47
2019-02-12T18:31:27.128Z,1.27
2019-02-12T18:33:56.689Z,1.10
2019-02-12T18:36:26.534Z,0.82
2019-02-12T18:38:56.010Z,1.00
2019-02-12T18:41:25.610Z,1.02
2019-02-12T18:43:55.255Z,1.55
2019-02-12T18:46:24.774Z,1.20
2019-02-12T18:48:54.390Z,0.90
2019-02-12T18:51:23.914Z,1.07
2019-02-12T18:53:53.745Z,1.02
2019-02-12T18:56:23.701Z,0.75
2019-02-12T18:58:53.231Z,1.00
2019-02-12T19:01:23.885Z,1.30
2019-02-12T19:03:54.731Z,1.05
2019-02-12T19:06:24.254Z,1.25
2019-02-12T19:08:53.776Z,1.98
2019-02-12T19:11:24.476Z,2.33
2019-02-12T19:13:54.080Z,1.67
2019-02-12T19:16:23.628Z,1.25
2019-02-12T19:18:54.191Z,1.85
2019-02-12T19:21:23.936Z,1.00
2019-02-12T19:23:55.038Z,1.80
2019-02-12T19:26:24.596Z,1.40
2019-02-12T19:28:54.114Z,1.40
2019-02-12T19:31:24.157Z,1.60
2019-02-12T19:33:54.738Z,1.70
2019-02-12T19:36:24.278Z,1.60
2019-02-12T19:38:53.860Z,1.35
2019-02-12T19:41:25.079Z,1.52
2019-02-12T19:43:54.782Z,1.77
2019-02-12T19:46:26.987Z,1.95
2019-02-12T19:48:56.798Z,2.22
2019-02-12T19:51:26.721Z,1.90
2019-02-12T19:53:56.525Z,1.85
2019-02-12T19:56:26.224Z,2.05
2019-02-12T19:58:55.896Z,1.85
2019-02-12T20:01:26.157Z,1.80
2019-02-12T20:03:55.941Z,2.50
2019-02-12T20:06:26.837Z,1.70
2019-02-12T20:08:56.772Z,2.02
2019-02-12T20:11:26.529Z,2.15
2019-02-12T20:13:56.331Z,2.33
2019-02-12T20:16:29.441Z,1.50
2019-02-12T20:19:00.235Z,2.10
2019-02-12T20:21:33.384Z,1.60
2019-02-12T20:24:06.112Z,1.85
2019-02-12T20:26:36.318Z,1.60
2019-02-12T20:29:06.668Z,1.82
2019-02-12T20:31:36.350Z,1.90
2019-02-12T20:34:08.342Z,2.20
2019-02-12T20:36:38.697Z,1.98
2019-02-12T20:39:09.059Z,2.42
2019-02-12T20:41:39.295Z,1.92
2019-02-12T20:44:08.916Z,1.72
2019-02-12T20:46:38.545Z,1.47
2019-02-12T20:49:08.483Z,1.90
2019-02-12T20:51:40.265Z,2.72
2019-02-12T20:54:09.847Z,1.75
2019-02-12T20:56:39.718Z,1.87
2019-02-12T20:59:10.129Z,2.20
2019-02-12T21:01:41.164Z,2.10
2019-02-12T21:04:17.295Z,1.82
2019-02-12T21:06:47.043Z,1.90
2019-02-12T21:09:18.987Z,1.40
2019-02-12T21:11:48.908Z,2.20
2019-02-12T21:14:18.578Z,2.95
2019-02-12T21:16:48.151Z,2.27
2019-02-12T21:19:18.571Z,2.02
2019-02-12T21:21:50.325Z,2.20
2019-02-12T21:24:20.165Z,2.40
2019-02-12T21:26:50.951Z,2.17
2019-02-12T21:29:20.747Z,2.15
2019-02-12T21:31:51.187Z,2.00
2019-02-12T21:34:21.214Z,1.90
2019-02-12T21:36:51.076Z,2.42
2019-02-12T21:39:24.659Z,2.65
2019-02-12T21:41:54.535Z,2.20
2019-02-12T21:44:24.528Z,2.02
2019-02-12T21:46:54.013Z,1.82
2019-02-12T21:49:24.035Z,2.10
2019-02-12T21:51:54.130Z,2.05
2019-02-12T21:54:23.699Z,2.02
2019-02-12T21:56:53.546Z,1.67
2019-02-12T21:59:23.046Z,2.00
2019-02-12T22:01:52.630Z,2.00
2019-02-12T22:04:23.753Z,1.70
2019-02-12T22:06:53.245Z,1.80
2019-02-12T22:09:22.817Z,1.52
2019-02-12T22:11:52.647Z,1.62
2019-02-12T22:14:23.058Z,1.57
2019-02-12T22:16:52.552Z,1.37
2019-02-12T22:19:22.098Z,1.67
2019-02-12T22:21:51.399Z,1.50
2019-02-12T22:24:21.861Z,2.10
2019-02-12T22:26:51.735Z,1.15
2019-02-12T22:29:21.507Z,1.35
2019-02-12T22:31:52.429Z,1.90
2019-02-12T22:34:22.983Z,1.27
2019-02-12T22:36:52.580Z,1.55
2019-02-12T22:39:22.266Z,1.32
2019-02-12T22:41:53.874Z,1.35
2019-02-12T22:44:23.434Z,1.00
2019-02-12T22:46:52.909Z,1.05
2019-02-12T22:49:23.012Z,1.07
2019-02-12T22:51:52.503Z,1.30
2019-02-12T22:54:22.052Z,1.80
2019-02-12T22:56:52.010Z,1.50
2019-02-12T22:59:21.573Z,2.00
2019-02-12T23:01:51.103Z,1.67
2019-02-12T23:04:20.635Z,1.70
2019-02-12T23:06:51.173Z,1.22
2019-02-12T23:09:20.691Z,1.25
2019-02-12T23:11:50.295Z,1.32
2019-02-12T23:14:19.795Z,1.65
2019-02-12T23:16:49.285Z,1.40
2019-02-12T23:19:18.849Z,1.45
2019-02-12T23:21:48.422Z,0.98
2019-02-12T23:24:17.904Z,1.35
2019-02-12T23:26:47.521Z,1.12
2019-02-12T23:29:17.022Z,1.00
2019-02-12T23:31:46.528Z,1.05
2019-02-12T23:34:16.109Z,1.32
2019-02-12T23:36:45.632Z,1.42
2019-02-12T23:39:15.253Z,1.25
2019-02-12T23:41:44.829Z,1.80
2019-02-12T23:44:14.356Z,1.40
2019-02-12T23:46:44.013Z,1.40
2019-02-12T23:49:13.537Z,1.80
2019-02-12T23:51:43.003Z,1.30
2019-02-12T23:54:12.655Z,1.37
2019-02-12T23:56:43.608Z,1.17
2019-02-12T23:59:15.194Z,1.17
